sensor_id;sensor_type;location;lat;lon;timestamp;P1;durP1;ratioP1;P2;durP2;ratioP2
3995;SDS011;2012;49.794;9.722;2022-08-11T00:00:58;5.40;;;2.70;;
3995;SDS011;2012;49.794;9.722;2022-08-11T00:03:31;5.27;;;2.53;;
3995;SDS011;2012;49.794;9.722;2022-08-11T00:06:09;5.17;;;3.00;;
3995;SDS011;2012;49.794;9.722;2022-08-11T00:08:39;3.63;;;2.63;;
3995;SDS011;2012;49.794;9.722;2022-08-11T00:11:07;4.17;;;2.80;;
3995;SDS011;2012;49.794;9.722;2022-08-11T00:16:04;6.03;;;2.80;;
3995;SDS011;2012;49.794;9.722;2022-08-11T00:18:39;2.60;;;2.40;;
3995;SDS011;2012;49.794;9.722;2022-08-11T00:21:08;8.50;;;3.97;;
3995;SDS011;2012;49.794;9.722;2022-08-11T00:23:40;5.10;;;2.70;;
3995;SDS011;2012;49.794;9.722;2022-08-11T00:26:09;2.57;;;2.07;;
3995;SDS011;2012;49.794;9.722;2022-08-11T00:28:37;4.13;;;2.60;;
3995;SDS011;2012;49.794;9.722;2022-08-11T00:31:05;6.37;;;2.50;;
3995;SDS011;2012;49.794;9.722;2022-08-11T00:33:36;9.70;;;2.70;;
3995;SDS011;2012;49.794;9.722;2022-08-11T00:36:11;5.97;;;2.90;;
3995;SDS011;2012;49.794;9.722;2022-08-11T00:38:48;3.77;;;3.00;;
3995;SDS011;2012;49.794;9.722;2022-08-11T00:41:27;5.70;;;2.60;;
3995;SDS011;2012;49.794;9.722;2022-08-11T01:06:42;3.40;;;2.80;;
3995;SDS011;2012;49.794;9.722;2022-08-11T01:09:30;8.80;;;3.10;;
3995;SDS011;2012;49.794;9.722;2022-08-11T01:14:39;3.60;;;3.27;;
3995;SDS011;2012;49.794;9.722;2022-08-11T01:20:46;3.67;;;3.03;;
3995;SDS011;2012;49.794;9.722;2022-08-11T01:47:55;4.73;;;3.10;;
3995;SDS011;2012;49.794;9.722;2022-08-11T01:50:34;9.17;;;3.00;;
3995;SDS011;2012;49.794;9.722;2022-08-11T01:53:15;7.27;;;3.50;;
3995;SDS011;2012;49.794;9.722;2022-08-11T01:58:39;5.23;;;3.03;;
3995;SDS011;2012;49.794;9.722;2022-08-11T02:04:06;4.47;;;3.00;;
3995;SDS011;2012;49.794;9.722;2022-08-11T02:06:49;3.43;;;2.90;;
3995;SDS011;2012;49.794;9.722;2022-08-11T02:16:20;13.70;;;3.27;;
3995;SDS011;2012;49.794;9.722;2022-08-11T02:25:35;3.70;;;3.30;;
3995;SDS011;2012;49.794;9.722;2022-08-11T02:30:40;5.50;;;3.27;;
3995;SDS011;2012;49.794;9.722;2022-08-11T02:34:04;4.70;;;3.20;;
3995;SDS011;2012;49.794;9.722;2022-08-11T02:36:43;3.43;;;3.07;;
3995;SDS011;2012;49.794;9.722;2022-08-11T02:39:18;8.40;;;3.30;;
3995;SDS011;2012;49.794;9.722;2022-08-11T02:47:57;3.40;;;3.10;;
3995;SDS011;2012;49.794;9.722;2022-08-11T02:53:56;8.20;;;3.17;;
3995;SDS011;2012;49.794;9.722;2022-08-11T02:59:45;4.10;;;3.10;;
3995;SDS011;2012;49.794;9.722;2022-08-11T03:12:57;4.00;;;3.40;;
3995;SDS011;2012;49.794;9.722;2022-08-11T03:16:08;4.70;;;3.60;;
3995;SDS011;2012;49.794;9.722;2022-08-11T03:22:06;4.50;;;4.03;;
3995;SDS011;2012;49.794;9.722;2022-08-11T03:24:55;7.03;;;3.33;;
3995;SDS011;2012;49.794;9.722;2022-08-11T03:27:47;6.53;;;3.30;;
3995;SDS011;2012;49.794;9.722;2022-08-11T03:30:26;11.00;;;3.73;;
3995;SDS011;2012;49.794;9.722;2022-08-11T03:33:07;5.23;;;3.87;;
3995;SDS011;2012;49.794;9.722;2022-08-11T03:38:51;8.50;;;3.27;;
3995;SDS011;2012;49.794;9.722;2022-08-11T03:41:31;5.00;;;3.90;;
3995;SDS011;2012;49.794;9.722;2022-08-11T03:44:37;7.63;;;3.40;;
3995;SDS011;2012;49.794;9.722;2022-08-11T04:13:19;12.83;;;4.00;;
3995;SDS011;2012;49.794;9.722;2022-08-11T04:22:16;6.83;;;3.70;;
3995;SDS011;2012;49.794;9.722;2022-08-11T04:27:58;7.00;;;3.40;;
3995;SDS011;2012;49.794;9.722;2022-08-11T04:48:55;7.80;;;3.70;;
3995;SDS011;2012;49.794;9.722;2022-08-11T04:54:50;5.97;;;3.67;;
3995;SDS011;2012;49.794;9.722;2022-08-11T05:01:00;9.93;;;3.63;;
3995;SDS011;2012;49.794;9.722;2022-08-11T05:07:37;6.77;;;3.43;;
3995;SDS011;2012;49.794;9.722;2022-08-11T05:13:00;11.13;;;3.63;;
3995;SDS011;2012;49.794;9.722;2022-08-11T05:15:51;5.00;;;3.70;;
3995;SDS011;2012;49.794;9.722;2022-08-11T05:18:44;4.40;;;3.20;;
3995;SDS011;2012;49.794;9.722;2022-08-11T05:21:33;5.57;;;3.70;;
3995;SDS011;2012;49.794;9.722;2022-08-11T05:24:23;11.40;;;4.20;;
3995;SDS011;2012;49.794;9.722;2022-08-11T05:27:15;8.70;;;3.90;;
3995;SDS011;2012;49.794;9.722;2022-08-11T05:30:04;12.10;;;3.97;;
3995;SDS011;2012;49.794;9.722;2022-08-11T05:32:56;5.40;;;4.17;;
3995;SDS011;2012;49.794;9.722;2022-08-11T05:35:46;9.63;;;3.50;;
3995;SDS011;2012;49.794;9.722;2022-08-11T05:38:29;17.80;;;4.10;;
3995;SDS011;2012;49.794;9.722;2022-08-11T05:41:18;8.00;;;4.20;;
3995;SDS011;2012;49.794;9.722;2022-08-11T05:44:07;6.80;;;3.90;;
3995;SDS011;2012;49.794;9.722;2022-08-11T05:46:54;7.20;;;3.33;;
3995;SDS011;2012;49.794;9.722;2022-08-11T05:49:40;4.43;;;3.07;;
3995;SDS011;2012;49.794;9.722;2022-08-11T05:52:27;8.30;;;2.83;;
3995;SDS011;2012;49.794;9.722;2022-08-11T05:55:22;7.57;;;3.37;;
3995;SDS011;2012;49.794;9.722;2022-08-11T05:58:32;3.40;;;2.90;;
3995;SDS011;2012;49.794;9.722;2022-08-11T06:01:07;8.13;;;3.13;;
3995;SDS011;2012;49.794;9.722;2022-08-11T06:03:35;11.43;;;3.60;;
3995;SDS011;2012;49.794;9.722;2022-08-11T06:06:24;3.13;;;2.83;;
3995;SDS011;2012;49.794;9.722;2022-08-11T06:08:54;7.40;;;3.40;;
3995;SDS011;2012;49.794;9.722;2022-08-11T06:11:23;11.50;;;3.03;;
3995;SDS011;2012;49.794;9.722;2022-08-11T06:14:10;5.10;;;3.00;;
3995;SDS011;2012;49.794;9.722;2022-08-11T06:16:37;3.90;;;2.97;;
3995;SDS011;2012;49.794;9.722;2022-08-11T06:19:07;10.73;;;2.73;;
3995;SDS011;2012;49.794;9.722;2022-08-11T06:21:35;3.90;;;3.20;;
3995;SDS011;2012;49.794;9.722;2022-08-11T06:24:03;13.30;;;3.77;;
3995;SDS011;2012;49.794;9.722;2022-08-11T06:26:37;3.50;;;2.97;;
3995;SDS011;2012;49.794;9.722;2022-08-11T06:29:26;6.63;;;3.77;;
3995;SDS011;2012;49.794;9.722;2022-08-11T06:32:11;11.70;;;3.77;;
3995;SDS011;2012;49.794;9.722;2022-08-11T06:37:39;8.47;;;2.83;;
3995;SDS011;2012;49.794;9.722;2022-08-11T06:43:17;14.27;;;3.30;;
3995;SDS011;2012;49.794;9.722;2022-08-11T06:45:56;4.30;;;2.90;;
3995;SDS011;2012;49.794;9.722;2022-08-11T06:48:30;4.93;;;2.70;;
3995;SDS011;2012;49.794;9.722;2022-08-11T06:51:01;14.40;;;2.83;;
3995;SDS011;2012;49.794;9.722;2022-08-11T06:53:48;7.20;;;3.20;;
3995;SDS011;2012;49.794;9.722;2022-08-11T06:56:31;22.23;;;4.37;;
3995;SDS011;2012;49.794;9.722;2022-08-11T06:59:37;18.67;;;3.20;;
3995;SDS011;2012;49.794;9.722;2022-08-11T07:02:25;22.17;;;3.00;;
3995;SDS011;2012;49.794;9.722;2022-08-11T07:05:04;7.80;;;3.13;;
3995;SDS011;2012;49.794;9.722;2022-08-11T07:14:37;8.53;;;2.90;;
3995;SDS011;2012;49.794;9.722;2022-08-11T07:17:29;10.10;;;2.90;;
3995;SDS011;2012;49.794;9.722;2022-08-11T07:20:01;11.80;;;2.97;;
3995;SDS011;2012;49.794;9.722;2022-08-11T07:22:53;16.13;;;3.03;;
3995;SDS011;2012;49.794;9.722;2022-08-11T07:25:51;10.53;;;2.70;;
3995;SDS011;2012;49.794;9.722;2022-08-11T07:28:46;11.83;;;3.07;;
3995;SDS011;2012;49.794;9.722;2022-08-11T07:31:23;7.37;;;2.67;;
3995;SDS011;2012;49.794;9.722;2022-08-11T07:33:58;6.03;;;2.33;;
3995;SDS011;2012;49.794;9.722;2022-08-11T07:36:53;9.87;;;3.07;;
3995;SDS011;2012;49.794;9.722;2022-08-11T07:39:22;6.57;;;2.70;;
3995;SDS011;2012;49.794;9.722;2022-08-11T07:41:58;8.33;;;2.80;;
3995;SDS011;2012;49.794;9.722;2022-08-11T07:44:30;19.97;;;2.70;;
3995;SDS011;2012;49.794;9.722;2022-08-11T07:47:17;4.17;;;2.00;;
3995;SDS011;2012;49.794;9.722;2022-08-11T07:50:03;8.50;;;2.30;;
3995;SDS011;2012;49.794;9.722;2022-08-11T07:52:52;3.77;;;2.40;;
3995;SDS011;2012;49.794;9.722;2022-08-11T07:55:20;4.53;;;2.37;;
3995;SDS011;2012;49.794;9.722;2022-08-11T07:58:10;5.13;;;2.17;;
3995;SDS011;2012;49.794;9.722;2022-08-11T08:01:11;2.80;;;2.40;;
3995;SDS011;2012;49.794;9.722;2022-08-11T08:04:03;4.77;;;2.43;;
3995;SDS011;2012;49.794;9.722;2022-08-11T08:06:49;4.83;;;1.90;;
3995;SDS011;2012;49.794;9.722;2022-08-11T08:09:36;7.53;;;2.73;;
3995;SDS011;2012;49.794;9.722;2022-08-11T08:12:23;4.47;;;2.60;;
3995;SDS011;2012;49.794;9.722;2022-08-11T08:15:10;10.37;;;2.13;;
3995;SDS011;2012;49.794;9.722;2022-08-11T08:17:58;7.13;;;2.57;;
3995;SDS011;2012;49.794;9.722;2022-08-11T08:20:47;12.20;;;2.30;;
3995;SDS011;2012;49.794;9.722;2022-08-11T08:23:16;5.93;;;3.13;;
3995;SDS011;2012;49.794;9.722;2022-08-11T08:25:59;16.30;;;2.43;;
3995;SDS011;2012;49.794;9.722;2022-08-11T08:28:28;7.43;;;2.30;;
3995;SDS011;2012;49.794;9.722;2022-08-11T08:30:57;5.17;;;2.67;;
3995;SDS011;2012;49.794;9.722;2022-08-11T08:33:26;6.30;;;2.03;;
3995;SDS011;2012;49.794;9.722;2022-08-11T08:35:59;11.60;;;2.20;;
3995;SDS011;2012;49.794;9.722;2022-08-11T08:38:41;4.30;;;2.20;;
3995;SDS011;2012;49.794;9.722;2022-08-11T08:41:18;14.00;;;1.87;;
3995;SDS011;2012;49.794;9.722;2022-08-11T08:43:49;8.03;;;2.30;;
3995;SDS011;2012;49.794;9.722;2022-08-11T08:46:22;6.40;;;2.33;;
3995;SDS011;2012;49.794;9.722;2022-08-11T08:48:53;3.93;;;2.07;;
3995;SDS011;2012;49.794;9.722;2022-08-11T08:51:20;6.50;;;1.93;;
3995;SDS011;2012;49.794;9.722;2022-08-11T08:54:22;14.00;;;2.40;;
3995;SDS011;2012;49.794;9.722;2022-08-11T08:56:55;3.90;;;1.83;;
3995;SDS011;2012;49.794;9.722;2022-08-11T08:59:23;7.20;;;2.10;;
3995;SDS011;2012;49.794;9.722;2022-08-11T09:02:11;4.50;;;2.10;;
3995;SDS011;2012;49.794;9.722;2022-08-11T09:04:39;6.97;;;2.57;;
3995;SDS011;2012;49.794;9.722;2022-08-11T09:07:10;4.17;;;2.17;;
3995;SDS011;2012;49.794;9.722;2022-08-11T09:09:43;2.90;;;2.10;;
3995;SDS011;2012;49.794;9.722;2022-08-11T09:12:12;3.27;;;1.83;;
3995;SDS011;2012;49.794;9.722;2022-08-11T09:14:41;6.53;;;2.40;;
3995;SDS011;2012;49.794;9.722;2022-08-11T09:20:18;4.73;;;2.47;;
3995;SDS011;2012;49.794;9.722;2022-08-11T09:22:50;3.67;;;2.23;;
3995;SDS011;2012;49.794;9.722;2022-08-11T09:26:00;5.70;;;2.17;;
3995;SDS011;2012;49.794;9.722;2022-08-11T09:28:46;8.70;;;2.23;;
3995;SDS011;2012;49.794;9.722;2022-08-11T09:31:15;8.13;;;2.47;;
3995;SDS011;2012;49.794;9.722;2022-08-11T09:33:46;5.60;;;2.37;;
3995;SDS011;2012;49.794;9.722;2022-08-11T09:36:15;1.97;;;1.87;;
3995;SDS011;2012;49.794;9.722;2022-08-11T09:39:03;5.00;;;2.43;;
3995;SDS011;2012;49.794;9.722;2022-08-11T09:41:49;5.50;;;3.40;;
3995;SDS011;2012;49.794;9.722;2022-08-11T09:44:27;8.17;;;3.13;;
3995;SDS011;2012;49.794;9.722;2022-08-11T09:47:18;6.53;;;2.40;;
3995;SDS011;2012;49.794;9.722;2022-08-11T09:49:51;5.60;;;2.43;;
3995;SDS011;2012;49.794;9.722;2022-08-11T09:52:24;3.40;;;2.10;;
3995;SDS011;2012;49.794;9.722;2022-08-11T09:54:52;6.80;;;2.00;;
3995;SDS011;2012;49.794;9.722;2022-08-11T09:57:20;9.97;;;2.30;;
3995;SDS011;2012;49.794;9.722;2022-08-11T10:00:07;4.50;;;2.10;;
3995;SDS011;2012;49.794;9.722;2022-08-11T10:02:42;5.27;;;2.20;;
3995;SDS011;2012;49.794;9.722;2022-08-11T10:05:14;2.93;;;1.50;;
3995;SDS011;2012;49.794;9.722;2022-08-11T10:08:03;3.27;;;2.10;;
3995;SDS011;2012;49.794;9.722;2022-08-11T10:10:35;2.50;;;1.50;;
3995;SDS011;2012;49.794;9.722;2022-08-11T10:13:08;4.43;;;2.30;;
3995;SDS011;2012;49.794;9.722;2022-08-11T10:16:00;4.77;;;1.97;;
3995;SDS011;2012;49.794;9.722;2022-08-11T10:18:42;2.00;;;1.60;;
3995;SDS011;2012;49.794;9.722;2022-08-11T10:21:24;2.20;;;1.43;;
3995;SDS011;2012;49.794;9.722;2022-08-11T10:23:55;5.50;;;1.70;;
3995;SDS011;2012;49.794;9.722;2022-08-11T10:26:44;4.90;;;2.03;;
3995;SDS011;2012;49.794;9.722;2022-08-11T10:29:20;1.87;;;1.57;;
3995;SDS011;2012;49.794;9.722;2022-08-11T10:32:20;7.23;;;1.90;;
3995;SDS011;2012;49.794;9.722;2022-08-11T10:35:24;2.53;;;2.00;;
3995;SDS011;2012;49.794;9.722;2022-08-11T10:37:53;6.33;;;1.80;;
3995;SDS011;2012;49.794;9.722;2022-08-11T10:40:43;3.40;;;2.00;;
3995;SDS011;2012;49.794;9.722;2022-08-11T10:43:11;9.30;;;1.97;;
3995;SDS011;2012;49.794;9.722;2022-08-11T10:45:59;4.90;;;1.63;;
3995;SDS011;2012;49.794;9.722;2022-08-11T10:48:56;2.70;;;1.63;;
3995;SDS011;2012;49.794;9.722;2022-08-11T10:51:24;2.23;;;2.00;;
3995;SDS011;2012;49.794;9.722;2022-08-11T10:54:17;1.63;;;1.53;;
3995;SDS011;2012;49.794;9.722;2022-08-11T10:57:05;3.77;;;1.77;;
3995;SDS011;2012;49.794;9.722;2022-08-11T10:59:52;7.20;;;1.90;;
3995;SDS011;2012;49.794;9.722;2022-08-11T11:02:21;3.70;;;1.40;;
3995;SDS011;2012;49.794;9.722;2022-08-11T11:07:34;3.10;;;1.40;;
3995;SDS011;2012;49.794;9.722;2022-08-11T11:10:09;3.60;;;1.60;;
3995;SDS011;2012;49.794;9.722;2022-08-11T11:12:46;6.13;;;1.70;;
3995;SDS011;2012;49.794;9.722;2022-08-11T11:15:40;5.70;;;1.40;;
3995;SDS011;2012;49.794;9.722;2022-08-11T11:18:31;7.63;;;2.17;;
3995;SDS011;2012;49.794;9.722;2022-08-11T11:21:04;1.70;;;1.47;;
3995;SDS011;2012;49.794;9.722;2022-08-11T11:23:37;5.33;;;1.57;;
3995;SDS011;2012;49.794;9.722;2022-08-11T11:29:22;3.53;;;1.50;;
3995;SDS011;2012;49.794;9.722;2022-08-11T11:37:49;2.97;;;1.37;;
3995;SDS011;2012;49.794;9.722;2022-08-11T11:40:29;3.17;;;1.20;;
3995;SDS011;2012;49.794;9.722;2022-08-11T11:42:57;3.23;;;1.50;;
3995;SDS011;2012;49.794;9.722;2022-08-11T11:45:25;4.20;;;1.40;;
3995;SDS011;2012;49.794;9.722;2022-08-11T11:47:53;10.53;;;2.50;;
3995;SDS011;2012;49.794;9.722;2022-08-11T11:50:27;2.10;;;1.33;;
3995;SDS011;2012;49.794;9.722;2022-08-11T11:53:06;6.60;;;1.57;;
3995;SDS011;2012;49.794;9.722;2022-08-11T11:55:34;2.43;;;1.60;;
3995;SDS011;2012;49.794;9.722;2022-08-11T11:58:02;2.17;;;1.73;;
3995;SDS011;2012;49.794;9.722;2022-08-11T12:00:48;4.57;;;1.20;;
3995;SDS011;2012;49.794;9.722;2022-08-11T12:03:36;2.63;;;1.00;;
3995;SDS011;2012;49.794;9.722;2022-08-11T12:06:05;3.83;;;1.33;;
3995;SDS011;2012;49.794;9.722;2022-08-11T12:08:33;1.33;;;1.10;;
3995;SDS011;2012;49.794;9.722;2022-08-11T12:11:03;1.93;;;1.50;;
3995;SDS011;2012;49.794;9.722;2022-08-11T12:13:52;2.63;;;1.23;;
3995;SDS011;2012;49.794;9.722;2022-08-11T12:16:21;2.23;;;1.20;;
3995;SDS011;2012;49.794;9.722;2022-08-11T12:19:14;11.97;;;1.33;;
3995;SDS011;2012;49.794;9.722;2022-08-11T12:21:43;2.97;;;1.60;;
3995;SDS011;2012;49.794;9.722;2022-08-11T12:24:30;1.97;;;1.50;;
3995;SDS011;2012;49.794;9.722;2022-08-11T12:27:16;1.77;;;1.20;;
3995;SDS011;2012;49.794;9.722;2022-08-11T12:29:57;4.00;;;1.67;;
3995;SDS011;2012;49.794;9.722;2022-08-11T12:32:26;11.10;;;1.40;;
3995;SDS011;2012;49.794;9.722;2022-08-11T12:34:56;3.73;;;1.43;;
3995;SDS011;2012;49.794;9.722;2022-08-11T12:37:26;1.40;;;1.30;;
3995;SDS011;2012;49.794;9.722;2022-08-11T12:40:04;4.73;;;1.60;;
3995;SDS011;2012;49.794;9.722;2022-08-11T12:43:17;1.47;;;1.17;;
3995;SDS011;2012;49.794;9.722;2022-08-11T12:46:51;7.90;;;1.17;;
3995;SDS011;2012;49.794;9.722;2022-08-11T12:49:01;4.70;;;1.10;;
3995;SDS011;2012;49.794;9.722;2022-08-11T12:51:53;4.10;;;1.33;;
3995;SDS011;2012;49.794;9.722;2022-08-11T12:57:16;2.53;;;1.40;;
3995;SDS011;2012;49.794;9.722;2022-08-11T13:00:10;2.73;;;1.20;;
3995;SDS011;2012;49.794;9.722;2022-08-11T13:02:56;4.50;;;1.40;;
3995;SDS011;2012;49.794;9.722;2022-08-11T13:05:42;1.50;;;1.23;;
3995;SDS011;2012;49.794;9.722;2022-08-11T13:08:14;4.33;;;1.53;;
3995;SDS011;2012;49.794;9.722;2022-08-11T13:10:43;6.60;;;1.60;;
3995;SDS011;2012;49.794;9.722;2022-08-11T13:13:29;3.40;;;1.13;;
3995;SDS011;2012;49.794;9.722;2022-08-11T13:16:17;2.30;;;1.10;;
3995;SDS011;2012;49.794;9.722;2022-08-11T13:18:45;1.53;;;1.10;;
3995;SDS011;2012;49.794;9.722;2022-08-11T13:21:13;2.10;;;1.20;;
3995;SDS011;2012;49.794;9.722;2022-08-11T13:23:46;1.80;;;1.30;;
3995;SDS011;2012;49.794;9.722;2022-08-11T13:26:28;5.40;;;1.33;;
3995;SDS011;2012;49.794;9.722;2022-08-11T13:29:13;6.70;;;1.50;;
3995;SDS011;2012;49.794;9.722;2022-08-11T13:31:49;4.77;;;1.37;;
3995;SDS011;2012;49.794;9.722;2022-08-11T13:34:17;1.17;;;1.07;;
3995;SDS011;2012;49.794;9.722;2022-08-11T13:36:50;2.47;;;1.10;;
3995;SDS011;2012;49.794;9.722;2022-08-11T13:39:22;4.97;;;1.37;;
3995;SDS011;2012;49.794;9.722;2022-08-11T13:41:52;11.13;;;1.60;;
3995;SDS011;2012;49.794;9.722;2022-08-11T13:44:21;7.80;;;1.90;;
3995;SDS011;2012;49.794;9.722;2022-08-11T13:47:12;2.10;;;1.30;;
3995;SDS011;2012;49.794;9.722;2022-08-11T13:49:41;9.13;;;1.30;;
3995;SDS011;2012;49.794;9.722;2022-08-11T13:52:13;1.73;;;1.20;;
3995;SDS011;2012;49.794;9.722;2022-08-11T13:54:42;5.03;;;1.37;;
3995;SDS011;2012;49.794;9.722;2022-08-11T13:57:13;1.80;;;1.10;;
3995;SDS011;2012;49.794;9.722;2022-08-11T14:00:02;5.23;;;1.20;;
3995;SDS011;2012;49.794;9.722;2022-08-11T14:02:53;2.50;;;1.20;;
3995;SDS011;2012;49.794;9.722;2022-08-11T14:05:24;5.50;;;1.37;;
3995;SDS011;2012;49.794;9.722;2022-08-11T14:07:57;2.40;;;1.10;;
3995;SDS011;2012;49.794;9.722;2022-08-11T14:10:27;4.17;;;1.10;;
3995;SDS011;2012;49.794;9.722;2022-08-11T14:13:08;1.77;;;1.43;;
3995;SDS011;2012;49.794;9.722;2022-08-11T14:16:17;4.37;;;1.27;;
3995;SDS011;2012;49.794;9.722;2022-08-11T14:18:47;2.40;;;1.20;;
3995;SDS011;2012;49.794;9.722;2022-08-11T14:21:17;5.23;;;1.33;;
3995;SDS011;2012;49.794;9.722;2022-08-11T14:24:05;2.50;;;1.10;;
3995;SDS011;2012;49.794;9.722;2022-08-11T14:26:33;1.30;;;1.10;;
3995;SDS011;2012;49.794;9.722;2022-08-11T14:29:08;1.63;;;0.83;;
3995;SDS011;2012;49.794;9.722;2022-08-11T14:31:41;8.03;;;1.20;;
3995;SDS011;2012;49.794;9.722;2022-08-11T14:34:10;6.93;;;1.10;;
3995;SDS011;2012;49.794;9.722;2022-08-11T14:36:43;6.27;;;1.30;;
3995;SDS011;2012;49.794;9.722;2022-08-11T14:39:16;2.13;;;1.40;;
3995;SDS011;2012;49.794;9.722;2022-08-11T14:41:48;2.17;;;1.00;;
3995;SDS011;2012;49.794;9.722;2022-08-11T14:44:45;2.20;;;1.50;;
3995;SDS011;2012;49.794;9.722;2022-08-11T14:47:33;6.00;;;1.33;;
3995;SDS011;2012;49.794;9.722;2022-08-11T14:50:03;6.33;;;1.50;;
3995;SDS011;2012;49.794;9.722;2022-08-11T14:52:37;14.97;;;1.17;;
3995;SDS011;2012;49.794;9.722;2022-08-11T14:55:08;1.70;;;1.33;;
3995;SDS011;2012;49.794;9.722;2022-08-11T14:57:55;2.87;;;1.33;;
3995;SDS011;2012;49.794;9.722;2022-08-11T15:00:23;5.93;;;1.50;;
3995;SDS011;2012;49.794;9.722;2022-08-11T15:02:51;2.03;;;1.30;;
3995;SDS011;2012;49.794;9.722;2022-08-11T15:05:55;2.47;;;1.10;;
3995;SDS011;2012;49.794;9.722;2022-08-11T15:08:24;1.47;;;1.10;;
3995;SDS011;2012;49.794;9.722;2022-08-11T15:11:14;5.73;;;1.20;;
3995;SDS011;2012;49.794;9.722;2022-08-11T15:14:01;4.30;;;1.10;;
3995;SDS011;2012;49.794;9.722;2022-08-11T15:16:30;3.60;;;1.30;;
3995;SDS011;2012;49.794;9.722;2022-08-11T15:19:17;4.57;;;1.20;;
3995;SDS011;2012;49.794;9.722;2022-08-11T15:21:48;2.20;;;1.00;;
3995;SDS011;2012;49.794;9.722;2022-08-11T15:24:34;1.47;;;0.90;;
3995;SDS011;2012;49.794;9.722;2022-08-11T15:27:03;2.63;;;1.20;;
3995;SDS011;2012;49.794;9.722;2022-08-11T15:29:52;5.37;;;1.17;;
3995;SDS011;2012;49.794;9.722;2022-08-11T15:32:57;3.43;;;0.83;;
3995;SDS011;2012;49.794;9.722;2022-08-11T15:35:45;1.67;;;1.20;;
3995;SDS011;2012;49.794;9.722;2022-08-11T15:38:31;9.80;;;1.43;;
3995;SDS011;2012;49.794;9.722;2022-08-11T15:41:01;2.10;;;1.17;;
3995;SDS011;2012;49.794;9.722;2022-08-11T15:43:53;3.13;;;1.03;;
3995;SDS011;2012;49.794;9.722;2022-08-11T15:46:49;5.33;;;1.57;;
3995;SDS011;2012;49.794;9.722;2022-08-11T15:49:21;5.13;;;1.47;;
3995;SDS011;2012;49.794;9.722;2022-08-11T15:52:17;8.20;;;1.33;;
3995;SDS011;2012;49.794;9.722;2022-08-11T15:54:47;1.83;;;1.10;;
3995;SDS011;2012;49.794;9.722;2022-08-11T15:57:15;2.30;;;1.27;;
3995;SDS011;2012;49.794;9.722;2022-08-11T16:00:05;4.27;;;1.10;;
3995;SDS011;2012;49.794;9.722;2022-08-11T16:02:51;3.00;;;1.20;;
3995;SDS011;2012;49.794;9.722;2022-08-11T16:05:22;3.93;;;1.30;;
3995;SDS011;2012;49.794;9.722;2022-08-11T16:08:11;2.17;;;1.53;;
3995;SDS011;2012;49.794;9.722;2022-08-11T16:10:40;1.77;;;1.13;;
3995;SDS011;2012;49.794;9.722;2022-08-11T16:13:10;3.27;;;1.10;;
3995;SDS011;2012;49.794;9.722;2022-08-11T16:15:41;1.20;;;1.10;;
3995;SDS011;2012;49.794;9.722;2022-08-11T16:18:32;5.90;;;1.20;;
3995;SDS011;2012;49.794;9.722;2022-08-11T16:21:10;3.97;;;1.20;;
3995;SDS011;2012;49.794;9.722;2022-08-11T16:24:02;5.53;;;1.20;;
3995;SDS011;2012;49.794;9.722;2022-08-11T16:26:31;5.00;;;1.47;;
3995;SDS011;2012;49.794;9.722;2022-08-11T16:29:22;1.37;;;1.20;;
3995;SDS011;2012;49.794;9.722;2022-08-11T16:31:50;4.40;;;1.23;;
3995;SDS011;2012;49.794;9.722;2022-08-11T16:34:39;10.40;;;1.50;;
3995;SDS011;2012;49.794;9.722;2022-08-11T16:37:25;4.50;;;1.30;;
3995;SDS011;2012;49.794;9.722;2022-08-11T16:40:11;2.13;;;1.17;;
3995;SDS011;2012;49.794;9.722;2022-08-11T16:42:40;1.80;;;1.40;;
3995;SDS011;2012;49.794;9.722;2022-08-11T16:45:37;3.53;;;1.40;;
3995;SDS011;2012;49.794;9.722;2022-08-11T16:48:25;6.63;;;1.90;;
3995;SDS011;2012;49.794;9.722;2022-08-11T16:51:02;7.10;;;1.50;;
3995;SDS011;2012;49.794;9.722;2022-08-11T16:53:29;3.10;;;1.50;;
3995;SDS011;2012;49.794;9.722;2022-08-11T16:56:22;7.93;;;1.50;;
3995;SDS011;2012;49.794;9.722;2022-08-11T16:58:53;2.30;;;1.13;;
3995;SDS011;2012;49.794;9.722;2022-08-11T17:01:49;2.50;;;1.23;;
3995;SDS011;2012;49.794;9.722;2022-08-11T17:07:30;8.20;;;1.37;;
3995;SDS011;2012;49.794;9.722;2022-08-11T17:10:32;7.23;;;1.70;;
3995;SDS011;2012;49.794;9.722;2022-08-11T17:13:30;1.30;;;1.10;;
3995;SDS011;2012;49.794;9.722;2022-08-11T17:16:02;9.20;;;1.57;;
3995;SDS011;2012;49.794;9.722;2022-08-11T17:18:42;4.37;;;1.27;;
3995;SDS011;2012;49.794;9.722;2022-08-11T17:21:37;3.20;;;1.47;;
3995;SDS011;2012;49.794;9.722;2022-08-11T17:24:24;2.20;;;1.63;;
3995;SDS011;2012;49.794;9.722;2022-08-11T17:26:53;9.90;;;1.70;;
3995;SDS011;2012;49.794;9.722;2022-08-11T17:29:33;4.13;;;1.67;;
3995;SDS011;2012;49.794;9.722;2022-08-11T17:32:30;1.40;;;1.30;;
3995;SDS011;2012;49.794;9.722;2022-08-11T17:35:31;1.40;;;1.17;;
3995;SDS011;2012;49.794;9.722;2022-08-11T17:38:07;2.30;;;1.10;;
3995;SDS011;2012;49.794;9.722;2022-08-11T17:40:38;9.37;;;1.70;;
3995;SDS011;2012;49.794;9.722;2022-08-11T17:43:27;5.80;;;1.70;;
3995;SDS011;2012;49.794;9.722;2022-08-11T17:46:14;10.60;;;1.60;;
3995;SDS011;2012;49.794;9.722;2022-08-11T17:49:02;3.80;;;1.30;;
3995;SDS011;2012;49.794;9.722;2022-08-11T17:51:33;4.00;;;1.10;;
3995;SDS011;2012;49.794;9.722;2022-08-11T17:54:20;3.93;;;1.40;;
3995;SDS011;2012;49.794;9.722;2022-08-11T17:57:08;7.43;;;1.70;;
3995;SDS011;2012;49.794;9.722;2022-08-11T17:59:55;3.53;;;1.60;;
3995;SDS011;2012;49.794;9.722;2022-08-11T18:05:13;6.30;;;1.83;;
3995;SDS011;2012;49.794;9.722;2022-08-11T18:07:43;11.43;;;1.40;;
3995;SDS011;2012;49.794;9.722;2022-08-11T18:10:30;2.47;;;1.47;;
3995;SDS011;2012;49.794;9.722;2022-08-11T18:13:18;3.03;;;1.20;;
3995;SDS011;2012;49.794;9.722;2022-08-11T18:16:05;6.13;;;1.30;;
3995;SDS011;2012;49.794;9.722;2022-08-11T18:18:54;9.60;;;1.60;;
3995;SDS011;2012;49.794;9.722;2022-08-11T18:21:41;2.40;;;1.53;;
3995;SDS011;2012;49.794;9.722;2022-08-11T18:24:43;4.60;;;1.53;;
3995;SDS011;2012;49.794;9.722;2022-08-11T18:27:35;1.40;;;1.30;;
3995;SDS011;2012;49.794;9.722;2022-08-11T18:30:24;5.83;;;1.40;;
3995;SDS011;2012;49.794;9.722;2022-08-11T18:33:10;5.43;;;1.30;;
3995;SDS011;2012;49.794;9.722;2022-08-11T18:36:20;2.07;;;1.40;;
3995;SDS011;2012;49.794;9.722;2022-08-11T18:39:08;1.97;;;1.60;;
3995;SDS011;2012;49.794;9.722;2022-08-11T18:41:57;3.10;;;1.67;;
3995;SDS011;2012;49.794;9.722;2022-08-11T18:44:55;2.07;;;1.37;;
3995;SDS011;2012;49.794;9.722;2022-08-11T18:47:46;5.33;;;1.67;;
3995;SDS011;2012;49.794;9.722;2022-08-11T18:50:37;5.00;;;1.40;;
3995;SDS011;2012;49.794;9.722;2022-08-11T18:53:46;2.07;;;1.80;;
3995;SDS011;2012;49.794;9.722;2022-08-11T18:56:35;7.53;;;2.27;;
3995;SDS011;2012;49.794;9.722;2022-08-11T18:59:23;16.30;;;2.63;;
3995;SDS011;2012;49.794;9.722;2022-08-11T19:02:11;15.60;;;2.07;;
3995;SDS011;2012;49.794;9.722;2022-08-11T19:05:15;6.33;;;1.57;;
3995;SDS011;2012;49.794;9.722;2022-08-11T19:08:22;4.60;;;1.80;;
3995;SDS011;2012;49.794;9.722;2022-08-11T19:11:14;7.33;;;1.67;;
3995;SDS011;2012;49.794;9.722;2022-08-11T19:14:09;3.00;;;1.97;;
3995;SDS011;2012;49.794;9.722;2022-08-11T19:16:57;1.97;;;1.40;;
3995;SDS011;2012;49.794;9.722;2022-08-11T19:20:04;4.53;;;2.17;;
3995;SDS011;2012;49.794;9.722;2022-08-11T19:22:52;6.77;;;2.03;;
3995;SDS011;2012;49.794;9.722;2022-08-11T19:25:39;2.10;;;1.90;;
3995;SDS011;2012;49.794;9.722;2022-08-11T19:28:27;4.43;;;1.90;;
3995;SDS011;2012;49.794;9.722;2022-08-11T19:31:14;4.60;;;2.13;;
3995;SDS011;2012;49.794;9.722;2022-08-11T19:33:59;4.70;;;1.57;;
3995;SDS011;2012;49.794;9.722;2022-08-11T19:36:45;6.90;;;1.90;;
3995;SDS011;2012;49.794;9.722;2022-08-11T19:39:32;2.57;;;1.70;;
3995;SDS011;2012;49.794;9.722;2022-08-11T19:42:18;6.10;;;2.20;;
3995;SDS011;2012;49.794;9.722;2022-08-11T19:45:04;6.73;;;1.93;;
3995;SDS011;2012;49.794;9.722;2022-08-11T19:47:51;10.07;;;1.77;;
3995;SDS011;2012;49.794;9.722;2022-08-11T19:50:57;9.40;;;1.90;;
3995;SDS011;2012;49.794;9.722;2022-08-11T19:53:45;3.90;;;1.77;;
3995;SDS011;2012;49.794;9.722;2022-08-11T19:56:32;3.67;;;1.83;;
3995;SDS011;2012;49.794;9.722;2022-08-11T19:59:17;12.23;;;2.13;;
3995;SDS011;2012;49.794;9.722;2022-08-11T20:02:04;3.80;;;1.80;;
3995;SDS011;2012;49.794;9.722;2022-08-11T20:04:50;2.57;;;2.17;;
3995;SDS011;2012;49.794;9.722;2022-08-11T20:07:35;7.53;;;1.80;;
3995;SDS011;2012;49.794;9.722;2022-08-11T20:10:21;7.90;;;1.70;;
3995;SDS011;2012;49.794;9.722;2022-08-11T20:13:07;8.63;;;1.60;;